createdAt,value
2022-08-18T00:00:32.158Z,22.10
2022-08-18T00:03:27.173Z,22.05
2022-08-18T00:05:48.034Z,22.03
2022-08-18T00:08:15.060Z,21.95
2022-08-18T00:10:42.853Z,21.85
2022-08-18T00:13:09.799Z,21.86
2022-08-18T00:15:42.236Z,21.80
2022-08-18T00:26:10.798Z,21.82
2022-08-18T00:28:37.730Z,21.71
2022-08-18T00:31:05.495Z,21.85
2022-08-18T00:33:32.594Z,21.86
2022-08-18T00:35:59.720Z,21.79
2022-08-18T00:38:26.792Z,21.77
2022-08-18T00:40:55.347Z,21.73
2022-08-18T00:43:32.071Z,21.59
2022-08-18T00:45:59.389Z,21.57
2022-08-18T00:48:26.318Z,21.51
2022-08-18T00:50:55.516Z,21.49
2022-08-18T00:53:23.003Z,21.48
2022-08-18T00:55:54.454Z,21.38
2022-08-18T00:58:35.696Z,21.34
2022-08-18T01:01:04.610Z,21.25
2022-08-18T01:03:33.732Z,21.23
2022-08-18T01:06:04.593Z,21.16
2022-08-18T01:08:31.887Z,21.09
2022-08-18T01:11:02.347Z,21.13
2022-08-18T01:13:31.615Z,21.18
2022-08-18T01:15:58.948Z,21.03
2022-08-18T01:18:44.643Z,21.02
2022-08-18T01:21:32.417Z,21.03
2022-08-18T01:24:02.454Z,20.99
2022-08-18T01:26:30.355Z,20.91
2022-08-18T01:29:04.926Z,20.81
2022-08-18T01:31:37.849Z,20.83
2022-08-18T01:34:06.487Z,20.85
2022-08-18T01:36:37.515Z,20.88
2022-08-18T01:39:05.929Z,20.84
2022-08-18T01:41:33.092Z,20.92
2022-08-18T01:44:01.010Z,21.03
2022-08-18T01:46:29.839Z,20.92
2022-08-18T01:48:58.612Z,20.86
2022-08-18T01:51:38.043Z,20.73
2022-08-18T01:54:13.582Z,20.68
2022-08-18T01:56:42.459Z,20.71
2022-08-18T01:59:15.032Z,20.74
2022-08-18T02:01:50.613Z,20.76
2022-08-18T02:04:35.218Z,20.61
2022-08-18T02:07:04.596Z,20.53
2022-08-18T02:09:33.660Z,20.62
2022-08-18T02:12:01.570Z,20.52
2022-08-18T02:14:31.403Z,20.50
2022-08-18T02:17:02.544Z,20.61
2022-08-18T02:19:56.072Z,20.68
2022-08-18T02:22:23.052Z,20.74
2022-08-18T02:24:50.274Z,20.72
2022-08-18T02:27:17.387Z,20.75
2022-08-18T02:29:44.548Z,20.68
2022-08-18T02:32:11.588Z,20.69
2022-08-18T02:34:38.748Z,20.67
2022-08-18T02:37:05.770Z,20.64
2022-08-18T02:39:34.429Z,20.59
2022-08-18T02:42:01.405Z,20.72
2022-08-18T02:44:29.747Z,20.66
2022-08-18T02:46:56.797Z,20.61
2022-08-18T02:49:24.949Z,20.59
2022-08-18T02:51:52.850Z,20.53
2022-08-18T02:54:23.476Z,20.51
2022-08-18T02:56:51.745Z,20.47
2022-08-18T03:01:47.734Z,20.43
2022-08-18T03:04:17.694Z,20.42
2022-08-18T03:06:45.517Z,20.39
2022-08-18T03:09:13.647Z,20.42
2022-08-18T03:11:40.919Z,20.39
2022-08-18T03:14:11.500Z,20.37
2022-08-18T03:16:40.533Z,20.32
2022-08-18T03:19:20.755Z,20.34
2022-08-18T03:21:47.856Z,20.33
2022-08-18T03:24:19.676Z,20.27
2022-08-18T03:26:50.605Z,20.25
2022-08-18T03:29:17.712Z,20.25
2022-08-18T03:31:45.412Z,20.18
2022-08-18T03:34:13.035Z,20.18
2022-08-18T03:36:41.931Z,20.25
2022-08-18T03:39:10.664Z,20.32
2022-08-18T03:41:43.868Z,20.46
2022-08-18T03:44:28.118Z,20.51
2022-08-18T03:46:55.076Z,20.50
2022-08-18T03:49:22.404Z,20.45
2022-08-18T03:51:49.496Z,20.38
2022-08-18T03:54:18.527Z,20.47
2022-08-18T03:56:46.844Z,20.51
2022-08-18T03:59:18.659Z,20.47
2022-08-18T04:01:47.114Z,20.37
2022-08-18T04:04:16.218Z,20.34
2022-08-18T04:06:45.995Z,20.35
2022-08-18T04:09:14.526Z,20.36
2022-08-18T04:11:45.504Z,20.37
2022-08-18T04:14:13.807Z,20.42
2022-08-18T04:16:41.420Z,20.42
2022-08-18T04:19:08.918Z,20.47
2022-08-18T04:21:37.739Z,20.54
2022-08-18T04:24:05.311Z,20.51
2022-08-18T04:26:32.802Z,20.34
2022-08-18T04:29:03.044Z,20.29
2022-08-18T04:31:31.226Z,20.25
2022-08-18T04:33:59.024Z,20.32
2022-08-18T04:36:26.609Z,20.50
2022-08-18T04:38:54.256Z,20.60
2022-08-18T04:41:27.428Z,20.77
2022-08-18T04:43:55.687Z,20.78
2022-08-18T04:46:24.057Z,20.78
2022-08-18T04:48:52.328Z,20.83
2022-08-18T04:52:39.073Z,20.91
2022-08-18T04:54:07.771Z,20.96
2022-08-18T04:56:37.988Z,21.01
2022-08-18T04:59:09.357Z,21.08
2022-08-18T05:01:41.604Z,21.02
2022-08-18T05:04:09.352Z,21.05
2022-08-18T05:06:36.791Z,21.13
2022-08-18T05:09:05.112Z,21.05
2022-08-18T05:11:33.562Z,21.08
2022-08-18T05:14:01.869Z,21.01
2022-08-18T05:16:29.481Z,21.03
2022-08-18T05:18:57.282Z,21.02
2022-08-18T05:21:25.318Z,21.00
2022-08-18T05:23:52.887Z,20.86
2022-08-18T05:26:20.109Z,20.74
2022-08-18T05:28:47.576Z,20.73
2022-08-18T05:31:14.579Z,20.68
2022-08-18T05:33:41.900Z,20.75
2022-08-18T05:36:11.847Z,20.78
2022-08-18T05:38:44.748Z,20.79
2022-08-18T05:41:14.416Z,20.88
2022-08-18T05:43:51.715Z,20.89
2022-08-18T05:46:22.033Z,20.95
2022-08-18T05:48:49.898Z,20.92
2022-08-18T05:51:21.065Z,20.89
2022-08-18T05:54:06.978Z,20.84
2022-08-18T05:56:47.894Z,20.78
2022-08-18T05:59:17.647Z,20.89
2022-08-18T06:01:46.621Z,20.96
2022-08-18T06:04:25.998Z,21.13
2022-08-18T06:06:53.728Z,21.23
2022-08-18T06:09:23.557Z,21.56
2022-08-18T06:11:51.207Z,21.92
2022-08-18T06:14:19.054Z,22.30
2022-08-18T06:16:53.415Z,22.49
2022-08-18T06:19:20.419Z,22.54
2022-08-18T06:21:57.474Z,22.55
2022-08-18T06:24:30.377Z,22.65
2022-08-18T06:27:03.612Z,22.89
2022-08-18T06:29:36.423Z,23.09
2022-08-18T06:32:23.360Z,23.38
2022-08-18T06:34:54.527Z,23.73
2022-08-18T06:37:34.272Z,24.04
2022-08-18T06:40:02.270Z,24.33
2022-08-18T06:42:35.660Z,24.55
2022-08-18T06:45:12.741Z,24.67
2022-08-18T06:47:47.093Z,24.80
2022-08-18T06:50:23.097Z,24.88
2022-08-18T06:52:53.123Z,24.97
2022-08-18T06:55:31.892Z,25.14
2022-08-18T06:58:00.675Z,25.28
2022-08-18T07:00:32.742Z,25.30
2022-08-18T07:03:08.371Z,25.31
2022-08-18T07:05:36.976Z,25.26
2022-08-18T07:08:13.095Z,25.33
2022-08-18T07:10:41.910Z,25.44
2022-08-18T07:13:18.252Z,25.53
2022-08-18T07:15:48.230Z,25.67
2022-08-18T07:18:21.077Z,25.85
2022-08-18T07:20:49.759Z,26.02
2022-08-18T07:23:25.733Z,26.03
2022-08-18T07:25:59.586Z,25.92
2022-08-18T07:28:37.551Z,25.68
2022-08-18T07:31:17.732Z,25.61
2022-08-18T07:33:51.412Z,25.56
2022-08-18T07:36:21.607Z,25.62
2022-08-18T07:38:51.664Z,25.62
2022-08-18T07:41:26.864Z,25.61
2022-08-18T07:43:59.760Z,25.50
2022-08-18T07:46:35.777Z,25.64
2022-08-18T07:49:05.510Z,25.58
2022-08-18T07:51:45.846Z,25.55
2022-08-18T07:54:47.599Z,25.49
2022-08-18T07:57:19.864Z,25.59
2022-08-18T07:59:50.494Z,25.63
2022-08-18T08:02:26.665Z,25.60
2022-08-18T08:05:12.760Z,25.40
2022-08-18T08:07:50.800Z,25.52
2022-08-18T08:10:18.915Z,25.54
2022-08-18T08:13:01.727Z,25.59
2022-08-18T08:15:46.993Z,25.67
2022-08-18T08:18:34.017Z,25.65
2022-08-18T08:21:12.018Z,25.72
2022-08-18T08:23:52.494Z,25.70
2022-08-18T08:26:42.550Z,25.66
2022-08-18T08:29:28.406Z,25.67
2022-08-18T08:32:02.171Z,25.66
2022-08-18T08:34:55.780Z,25.73
2022-08-18T08:37:27.846Z,25.76
2022-08-18T08:40:00.728Z,25.96
2022-08-18T08:42:45.424Z,26.09
2022-08-18T08:45:18.039Z,26.16
2022-08-18T08:48:08.889Z,26.31
2022-08-18T08:51:00.003Z,26.35
2022-08-18T08:53:30.012Z,26.50
2022-08-18T08:56:02.449Z,26.85
2022-08-18T08:58:42.966Z,27.26
2022-08-18T09:01:12.547Z,28.01
2022-08-18T09:03:43.329Z,28.54
2022-08-18T09:06:25.351Z,28.87
2022-08-18T09:08:56.097Z,28.96
2022-08-18T09:11:45.364Z,28.98
2022-08-18T09:14:32.974Z,28.99
2022-08-18T09:17:18.507Z,28.97
2022-08-18T09:19:58.719Z,29.05
2022-08-18T09:22:26.238Z,29.06
2022-08-18T09:24:54.831Z,29.20
2022-08-18T09:28:08.793Z,29.50
2022-08-18T09:30:51.511Z,29.49
2022-08-18T09:33:26.569Z,29.40
2022-08-18T09:36:13.141Z,29.28
2022-08-18T09:39:27.429Z,28.94
2022-08-18T09:42:03.465Z,28.74
2022-08-18T09:44:45.820Z,28.75
2022-08-18T09:47:22.294Z,28.70
2022-08-18T09:49:55.471Z,28.71
2022-08-18T09:55:18.554Z,28.59
2022-08-18T09:57:46.713Z,28.46
2022-08-18T10:03:16.196Z,28.40
2022-08-18T10:05:59.573Z,28.37
2022-08-18T10:08:30.183Z,28.45
2022-08-18T10:11:09.384Z,28.60
2022-08-18T10:13:38.756Z,28.54
2022-08-18T10:16:22.155Z,28.50
2022-08-18T10:19:08.161Z,28.45
2022-08-18T10:21:53.961Z,28.33
2022-08-18T10:24:36.538Z,28.13
2022-08-18T10:27:06.724Z,28.02
2022-08-18T10:29:47.734Z,27.96
2022-08-18T10:32:14.804Z,27.86
2022-08-18T10:34:51.977Z,27.87
2022-08-18T10:37:28.791Z,27.73
2022-08-18T10:39:55.845Z,27.58
2022-08-18T10:42:32.687Z,27.45
2022-08-18T10:45:07.954Z,27.32
2022-08-18T10:47:36.988Z,27.28
2022-08-18T10:50:08.606Z,27.28
2022-08-18T10:52:51.016Z,27.20
2022-08-18T10:55:48.144Z,27.09
2022-08-18T10:58:24.024Z,27.04
2022-08-18T11:00:55.085Z,26.92
2022-08-18T11:06:28.306Z,26.81
2022-08-18T11:08:57.950Z,26.81
2022-08-18T11:11:37.077Z,26.71
2022-08-18T11:14:20.314Z,26.60
2022-08-18T11:16:59.704Z,26.57
2022-08-18T11:19:27.161Z,26.48
2022-08-18T11:21:54.764Z,26.44
2022-08-18T11:24:27.240Z,26.33
2022-08-18T11:26:55.673Z,26.32
2022-08-18T11:29:22.763Z,26.30
2022-08-18T11:31:53.631Z,26.26
2022-08-18T11:34:25.957Z,26.20
2022-08-18T11:37:00.223Z,26.21
2022-08-18T11:39:37.633Z,26.20
2022-08-18T11:42:08.353Z,26.10
2022-08-18T11:44:42.875Z,26.09
2022-08-18T11:47:23.526Z,26.11
2022-08-18T11:50:00.317Z,26.10
2022-08-18T11:52:32.949Z,26.09
2022-08-18T11:55:16.306Z,26.15
2022-08-18T11:57:58.536Z,26.13
2022-08-18T12:00:43.057Z,26.04
2022-08-18T12:03:17.343Z,26.01
2022-08-18T12:05:56.130Z,25.99
2022-08-18T12:11:27.512Z,25.76
2022-08-18T12:14:30.123Z,25.72
2022-08-18T12:16:50.855Z,25.73
2022-08-18T12:19:22.273Z,25.50
2022-08-18T12:21:54.640Z,25.42
2022-08-18T12:24:26.236Z,25.44
2022-08-18T12:26:56.537Z,25.51
2022-08-18T12:29:26.379Z,25.60
2022-08-18T12:31:58.078Z,25.66
2022-08-18T12:34:27.323Z,25.72
2022-08-18T12:36:55.894Z,25.87
2022-08-18T12:39:23.034Z,25.80
2022-08-18T12:41:51.428Z,25.82
2022-08-18T12:44:19.299Z,25.92
2022-08-18T12:46:47.608Z,26.03
2022-08-18T12:49:18.663Z,26.06
2022-08-18T12:51:46.601Z,26.21
2022-08-18T12:54:20.544Z,26.45
2022-08-18T12:56:51.876Z,26.45
2022-08-18T12:59:19.097Z,26.43
2022-08-18T13:01:46.587Z,26.48
2022-08-18T13:04:15.504Z,26.56
2022-08-18T13:07:00.304Z,26.50
2022-08-18T13:09:47.654Z,26.68
2022-08-18T13:12:18.455Z,26.75
2022-08-18T13:14:47.577Z,26.90
2022-08-18T13:17:32.780Z,26.92
2022-08-18T13:20:08.286Z,26.95
2022-08-18T13:22:35.998Z,26.96
2022-08-18T13:25:05.389Z,26.93
2022-08-18T13:27:45.621Z,27.06
2022-08-18T13:30:29.888Z,27.24
2022-08-18T13:33:02.754Z,27.39
2022-08-18T13:35:48.081Z,27.57
2022-08-18T13:38:27.252Z,27.61
2022-08-18T13:40:57.673Z,27.54
2022-08-18T13:43:29.532Z,27.49
2022-08-18T13:45:56.983Z,27.21
2022-08-18T13:48:25.695Z,26.97
2022-08-18T13:50:53.872Z,26.95
2022-08-18T13:53:23.816Z,27.01
2022-08-18T13:55:52.571Z,27.09
2022-08-18T13:58:20.850Z,27.43
2022-08-18T14:00:52.341Z,27.54
2022-08-18T14:03:42.276Z,27.38
2022-08-18T14:06:13.124Z,27.80
2022-08-18T14:08:40.754Z,27.83
2022-08-18T14:11:09.012Z,27.29
2022-08-18T14:13:38.188Z,27.05
2022-08-18T14:16:11.152Z,26.88
2022-08-18T14:19:09.806Z,26.74
2022-08-18T14:22:00.993Z,26.90
2022-08-18T14:24:49.102Z,27.20
2022-08-18T14:27:17.798Z,27.24
2022-08-18T14:29:47.925Z,27.29
2022-08-18T14:32:28.416Z,27.19
2022-08-18T14:35:00.125Z,27.07
2022-08-18T14:37:29.796Z,26.92
2022-08-18T14:39:57.185Z,26.74
2022-08-18T14:42:40.892Z,26.72
2022-08-18T14:45:17.554Z,26.58
2022-08-18T14:47:55.595Z,26.42
2022-08-18T14:50:25.729Z,26.38
2022-08-18T14:52:53.061Z,26.20
2022-08-18T14:55:20.816Z,26.07
2022-08-18T14:57:47.869Z,25.94
2022-08-18T15:00:16.878Z,25.99
2022-08-18T15:02:49.257Z,25.97
2022-08-18T15:05:19.756Z,25.93
2022-08-18T15:07:51.064Z,25.88
2022-08-18T15:10:19.741Z,25.97
2022-08-18T15:12:50.126Z,26.33
2022-08-18T15:15:18.248Z,26.48
2022-08-18T15:17:50.035Z,26.59
2022-08-18T15:20:17.932Z,26.75
2022-08-18T15:23:04.285Z,26.69
2022-08-18T15:25:44.991Z,26.65
2022-08-18T15:28:16.358Z,26.81
2022-08-18T15:30:45.018Z,26.84
2022-08-18T15:33:16.581Z,26.79
2022-08-18T15:35:44.470Z,26.83
2022-08-18T15:38:15.513Z,27.06
2022-08-18T15:40:52.214Z,27.31
2022-08-18T15:43:25.371Z,27.39
2022-08-18T15:45:58.242Z,27.41
2022-08-18T15:48:26.089Z,27.40
2022-08-18T15:50:53.574Z,27.52
2022-08-18T15:53:29.692Z,27.64
2022-08-18T15:56:04.360Z,27.69
2022-08-18T15:58:31.806Z,27.65
2022-08-18T16:00:59.348Z,27.66
2022-08-18T16:03:27.626Z,27.59
2022-08-18T16:05:56.309Z,27.55
2022-08-18T16:08:24.850Z,27.58
2022-08-18T16:10:52.770Z,27.49
2022-08-18T16:13:20.030Z,27.38
2022-08-18T16:15:48.464Z,27.45
2022-08-18T16:18:16.649Z,27.44
2022-08-18T16:20:43.893Z,27.23
2022-08-18T16:23:12.509Z,27.12
2022-08-18T16:25:40.604Z,27.02
2022-08-18T16:28:07.756Z,26.69
2022-08-18T16:30:35.767Z,26.55
2022-08-18T16:33:04.632Z,26.52
2022-08-18T16:35:32.258Z,26.36
2022-08-18T16:38:06.471Z,26.35
2022-08-18T16:40:33.539Z,26.32
2022-08-18T16:43:01.350Z,26.20
2022-08-18T16:45:28.867Z,26.21
2022-08-18T16:47:56.020Z,26.25
2022-08-18T16:50:24.909Z,26.17
2022-08-18T16:52:52.189Z,26.16
2022-08-18T16:55:19.816Z,26.18
2022-08-18T16:58:05.305Z,26.15
2022-08-18T17:00:54.812Z,26.09
2022-08-18T17:03:43.850Z,26.03
2022-08-18T17:06:12.827Z,26.01
2022-08-18T17:08:40.654Z,25.92
2022-08-18T17:11:09.489Z,26.05
2022-08-18T17:13:37.319Z,26.03
2022-08-18T17:16:04.532Z,25.90
2022-08-18T17:18:31.781Z,25.94
2022-08-18T17:21:03.688Z,25.84
2022-08-18T17:23:31.248Z,25.75
2022-08-18T17:25:58.985Z,25.64
2022-08-18T17:28:42.756Z,25.66
2022-08-18T17:31:19.468Z,25.56
2022-08-18T17:33:46.759Z,25.53
2022-08-18T17:36:20.975Z,25.44
2022-08-18T17:38:54.112Z,25.44
2022-08-18T17:41:21.270Z,25.27
2022-08-18T17:43:48.230Z,25.33
2022-08-18T17:46:27.099Z,25.34
2022-08-18T17:49:00.569Z,25.20
2022-08-18T17:51:33.686Z,25.12
2022-08-18T17:54:03.327Z,25.20
2022-08-18T17:56:36.278Z,25.13
2022-08-18T17:59:51.530Z,24.98
2022-08-18T18:02:18.379Z,24.94
2022-08-18T18:04:58.317Z,24.87
2022-08-18T18:07:28.092Z,24.87
2022-08-18T18:10:04.275Z,24.70
2022-08-18T18:12:32.669Z,24.68
2022-08-18T18:15:00.513Z,24.57
2022-08-18T18:17:32.526Z,24.58
2022-08-18T18:20:15.736Z,24.61
2022-08-18T18:22:43.908Z,24.58
2022-08-18T18:25:12.415Z,24.56
2022-08-18T18:27:41.880Z,24.55
2022-08-18T18:30:08.899Z,24.50
2022-08-18T18:32:59.069Z,24.52
2022-08-18T18:35:53.187Z,24.57
2022-08-18T18:38:36.355Z,24.57
2022-08-18T18:41:26.631Z,24.50
2022-08-18T18:44:04.591Z,24.24
2022-08-18T18:46:35.912Z,24.09
2022-08-18T18:49:08.083Z,23.66
2022-08-18T18:51:41.475Z,23.46
2022-08-18T18:54:26.814Z,23.30
2022-08-18T18:56:56.732Z,23.19
2022-08-18T18:59:42.645Z,23.18
2022-08-18T19:02:33.769Z,23.19
2022-08-18T19:05:25.608Z,23.29
2022-08-18T19:07:52.839Z,23.34
2022-08-18T19:10:26.132Z,23.41
2022-08-18T19:12:56.798Z,23.39
2022-08-18T19:15:25.631Z,23.46
2022-08-18T19:17:56.299Z,23.53
2022-08-18T19:20:28.749Z,23.64
2022-08-18T19:23:11.446Z,23.70
2022-08-18T19:26:00.242Z,23.72
2022-08-18T19:28:28.800Z,23.65
2022-08-18T19:30:57.557Z,23.59
2022-08-18T19:33:26.402Z,23.45
2022-08-18T19:36:19.619Z,23.35
2022-08-18T19:38:50.127Z,23.39
2022-08-18T19:41:40.741Z,23.33
2022-08-18T19:44:26.601Z,23.34
2022-08-18T19:46:54.458Z,23.39
2022-08-18T19:49:31.520Z,23.46
2022-08-18T19:52:01.503Z,23.35
2022-08-18T19:54:42.905Z,23.13
2022-08-18T19:57:16.294Z,22.88
2022-08-18T20:00:08.651Z,22.65
2022-08-18T20:03:03.959Z,22.49
2022-08-18T20:05:31.678Z,22.34
2022-08-18T20:08:20.988Z,22.14
2022-08-18T20:11:07.225Z,21.97
2022-08-18T20:13:43.054Z,21.94
2022-08-18T20:16:13.549Z,21.87
2022-08-18T20:18:43.216Z,21.82
2022-08-18T20:21:16.608Z,21.80
2022-08-18T20:23:55.671Z,21.77
2022-08-18T20:26:41.332Z,21.70
2022-08-18T20:29:19.088Z,21.65
2022-08-18T20:31:49.345Z,21.58
2022-08-18T20:34:18.370Z,21.52
2022-08-18T20:36:46.924Z,21.53
2022-08-18T20:39:29.929Z,21.49
2022-08-18T20:41:57.091Z,21.48
2022-08-18T20:44:29.359Z,21.47
2022-08-18T20:46:56.752Z,21.41
2022-08-18T20:49:33.399Z,21.38
2022-08-18T20:52:09.199Z,21.40
2022-08-18T20:54:57.473Z,21.37
2022-08-18T20:57:27.391Z,21.38
2022-08-18T20:59:58.577Z,21.32
2022-08-18T21:02:28.059Z,21.34
2022-08-18T21:04:57.717Z,21.27
2022-08-18T21:07:36.637Z,21.31
2022-08-18T21:10:12.808Z,21.31
2022-08-18T21:12:52.524Z,21.34
2022-08-18T21:15:21.159Z,21.39
2022-08-18T21:17:57.095Z,21.35
2022-08-18T21:20:24.677Z,21.35
2022-08-18T21:23:01.048Z,21.29
2022-08-18T21:25:28.326Z,21.24
2022-08-18T21:27:57.187Z,21.28
2022-08-18T21:30:26.576Z,21.20
2022-08-18T21:32:54.089Z,21.17
2022-08-18T21:35:27.180Z,21.18
2022-08-18T21:37:55.835Z,21.08
2022-08-18T21:40:30.899Z,21.12
2022-08-18T21:42:58.446Z,21.13
2022-08-18T21:45:25.591Z,21.11
2022-08-18T21:47:54.535Z,21.07
2022-08-18T21:50:23.371Z,21.09
2022-08-18T21:52:52.034Z,21.07
2022-08-18T21:55:26.164Z,21.00
2022-08-18T21:58:14.341Z,20.95
2022-08-18T22:00:42.996Z,20.95
2022-08-18T22:03:23.869Z,20.84
2022-08-18T22:06:13.054Z,20.82
2022-08-18T22:09:26.015Z,20.87
2022-08-18T22:12:30.744Z,20.83
2022-08-18T22:15:05.676Z,20.87
2022-08-18T22:17:35.070Z,20.84
2022-08-18T22:20:20.934Z,20.87
2022-08-18T22:23:06.708Z,20.81
2022-08-18T22:25:34.115Z,20.81
2022-08-18T22:28:01.089Z,20.84
2022-08-18T22:30:28.012Z,20.94
2022-08-18T22:32:54.915Z,20.92
2022-08-18T22:35:21.852Z,20.84
2022-08-18T22:37:50.832Z,20.77
2022-08-18T22:40:21.603Z,20.74
2022-08-18T22:42:49.526Z,20.69
2022-08-18T22:45:16.694Z,20.72
2022-08-18T22:47:45.145Z,20.78
2022-08-18T22:50:13.124Z,20.70
2022-08-18T22:52:41.301Z,20.64
2022-08-18T22:55:11.481Z,20.62
2022-08-18T22:57:39.761Z,20.56
2022-08-18T23:00:11.906Z,20.57
2022-08-18T23:02:38.874Z,20.55
2022-08-18T23:05:06.306Z,20.48
2022-08-18T23:07:34.183Z,20.40
2022-08-18T23:10:01.759Z,20.41
2022-08-18T23:12:28.763Z,20.33
2022-08-18T23:14:55.706Z,20.38
2022-08-18T23:17:22.914Z,20.37
2022-08-18T23:19:52.135Z,20.34
2022-08-18T23:22:19.643Z,20.25
2022-08-18T23:24:47.218Z,20.17
2022-08-18T23:27:14.708Z,20.15
2022-08-18T23:29:41.658Z,20.06
2022-08-18T23:32:08.692Z,19.90
2022-08-18T23:34:36.263Z,19.93
2022-08-18T23:37:04.578Z,19.90
2022-08-18T23:39:32.724Z,19.87
2022-08-18T23:42:00.312Z,19.85
2022-08-18T23:44:27.947Z,19.85
2022-08-18T23:46:56.291Z,19.89
2022-08-18T23:49:23.537Z,19.83
2022-08-18T23:51:51.402Z,19.84
2022-08-18T23:54:20.368Z,19.75
2022-08-18T23:56:47.892Z,19.77
2022-08-18T23:59:16.619Z,19.78
